Time,TemperatureF,DewpointF,PressureIn,WindDirection,WindDirectionDegrees,WindSpeedMPH,WindSpeedGustMPH,Humidity,HourlyPrecipIn,Conditions,Clouds,dailyrainin,SoftwareType,DateUTC
2013-10-06 00:13:00,53.0,40.0,29.84,WNW,298,0.0,4.0,62,0.00,,,0.01,,2013-10-06 05:13:00,
2013-10-06 00:22:00,53.0,42.0,29.83,WNW,298,0.0,0.0,66,0.00,,,0.01,,2013-10-06 05:22:00,
2013-10-06 00:52:00,50.0,42.0,29.83,WNW,298,0.0,0.0,74,0.00,,,0.01,,2013-10-06 05:52:00,
2013-10-06 01:12:00,49.0,42.0,29.82,WNW,298,0.0,0.0,77,0.00,,,0.01,,2013-10-06 06:12:00,
2013-10-06 01:22:00,49.0,43.0,29.82,WNW,298,0.0,0.0,80,0.00,,,0.01,,2013-10-06 06:22:00,
2013-10-06 01:42:00,48.0,42.0,29.81,WNW,298,0.0,0.0,81,0.00,,,0.01,,2013-10-06 06:42:00,
2013-10-06 01:52:00,48.0,43.0,29.81,WNW,298,0.0,0.0,82,0.00,,,0.01,,2013-10-06 06:52:00,
2013-10-06 02:11:00,47.0,42.0,29.81,WNW,298,0.0,0.0,82,0.00,,,0.01,,2013-10-06 07:11:00,
2013-10-06 02:22:00,47.0,42.0,29.80,WNW,298,0.0,0.0,82,0.00,,,0.01,,2013-10-06 07:22:00,
2013-10-06 02:52:00,46.0,41.0,29.79,WNW,298,0.0,0.0,84,0.00,,,0.01,,2013-10-06 07:52:00,
2013-10-06 03:11:00,46.0,41.0,29.78,WNW,298,0.0,0.0,84,0.00,,,0.01,,2013-10-06 08:11:00,
2013-10-06 03:22:00,45.0,41.0,29.78,WNW,298,0.0,1.0,85,0.00,,,0.01,,2013-10-06 08:22:00,
2013-10-06 03:42:00,45.0,41.0,29.77,WNW,298,0.0,0.0,85,0.00,,,0.01,,2013-10-06 08:42:00,
2013-10-06 03:53:00,45.0,41.0,29.78,WNW,298,0.0,0.0,85,0.00,,,0.01,,2013-10-06 08:53:00,
2013-10-06 04:11:00,45.0,41.0,29.78,WNW,298,0.0,0.0,85,0.00,,,0.01,,2013-10-06 09:11:00,
2013-10-06 04:22:00,45.0,41.0,29.78,WNW,298,0.0,0.0,86,0.00,,,0.01,,2013-10-06 09:22:00,
2013-10-06 04:53:00,45.0,41.0,29.78,WNW,298,0.0,0.0,85,0.00,,,0.01,,2013-10-06 09:53:00,
2013-10-06 05:13:00,45.0,40.0,29.78,WNW,298,0.0,0.0,84,0.00,,,0.01,,2013-10-06 10:13:00,
2013-10-06 05:23:00,44.0,39.0,29.78,WNW,298,0.0,0.0,83,0.00,,,0.01,,2013-10-06 10:23:00,
2013-10-06 05:53:00,44.0,39.0,29.78,WNW,298,0.0,0.0,83,0.00,,,0.01,,2013-10-06 10:53:00,
2013-10-06 06:12:00,44.0,39.0,29.78,WNW,298,0.0,0.0,83,0.00,,,0.01,,2013-10-06 11:12:00,
2013-10-06 06:21:00,44.0,39.0,29.78,WNW,298,0.0,1.0,83,0.00,,,0.01,,2013-10-06 11:21:00,
2013-10-06 06:52:00,43.0,38.0,29.77,WNW,298,0.0,0.0,83,0.00,,,0.01,,2013-10-06 11:52:00,
2013-10-06 07:12:00,43.0,38.0,29.77,WNW,298,0.0,0.0,83,0.00,,,0.01,,2013-10-06 12:12:00,
2013-10-06 07:22:00,43.0,38.0,29.77,WNW,298,0.0,0.0,83,0.00,,,0.01,,2013-10-06 12:22:00,
2013-10-06 07:52:00,42.0,37.0,29.77,WNW,298,0.0,1.0,83,0.00,,,0.01,,2013-10-06 12:52:00,
2013-10-06 08:11:00,42.0,37.0,29.77,WNW,290,0.0,3.0,83,0.00,,,0.01,,2013-10-06 13:11:00,
2013-10-06 08:21:00,43.0,38.0,29.77,WNW,297,1.0,4.0,82,0.00,,,0.01,,2013-10-06 13:21:00,
2013-10-06 08:42:00,44.0,38.0,29.77,WNW,286,1.0,5.0,79,0.00,,,0.01,,2013-10-06 13:42:00,
2013-10-06 08:52:00,44.0,38.0,29.77,WNW,286,1.0,5.0,79,0.00,,,0.01,,2013-10-06 13:52:00,
2013-10-06 09:11:00,46.0,39.0,29.77,WNW,303,2.0,6.0,76,0.00,,,0.01,,2013-10-06 14:11:00,
2013-10-06 09:22:00,46.0,38.0,29.76,SSW,211,2.0,8.0,73,0.00,,,0.01,,2013-10-06 14:22:00,
2013-10-06 09:42:00,47.0,39.0,29.77,West,267,1.0,6.0,73,0.00,,,0.01,,2013-10-06 14:42:00,
2013-10-06 09:52:00,48.0,39.0,29.77,WNW,286,4.0,7.0,71,0.00,,,0.01,,2013-10-06 14:52:00,
2013-10-06 10:11:00,49.0,39.0,29.77,WNW,301,2.0,5.0,69,0.00,,,0.01,,2013-10-06 15:11:00,
2013-10-06 10:22:00,50.0,39.0,29.77,NW,320,3.0,6.0,66,0.00,,,0.00,,2013-10-06 15:22:00,
2013-10-06 10:54:00,51.0,39.0,29.76,NW,306,3.0,7.0,63,0.00,,,0.00,,2013-10-06 15:54:00,
2013-10-06 11:12:00,51.0,38.0,29.76,WNW,296,2.0,6.0,62,0.00,,,0.00,,2013-10-06 16:12:00,
2013-10-06 11:23:00,51.0,38.0,29.76,WNW,286,3.0,8.0,61,0.00,,,0.00,,2013-10-06 16:23:00,
2013-10-06 11:42:00,52.0,39.0,29.76,West,272,3.0,9.0,61,0.00,,,0.00,,2013-10-06 16:42:00,
2013-10-06 11:53:00,52.0,37.0,29.76,WNW,286,3.0,8.0,57,0.00,,,0.00,,2013-10-06 16:53:00,
2013-10-06 12:12:00,53.0,41.0,29.76,SSW,207,1.0,9.0,63,0.00,,,0.00,,2013-10-06 17:12:00,
2013-10-06 12:22:00,53.0,39.0,29.76,WNW,292,2.0,10.0,59,0.00,,,0.00,,2013-10-06 17:22:00,
2013-10-06 12:42:00,52.0,37.0,29.75,NW,304,5.0,11.0,56,0.00,,,0.00,,2013-10-06 17:42:00,
2013-10-06 12:52:00,52.0,37.0,29.76,NW,314,4.0,10.0,57,0.00,,,0.00,,2013-10-06 17:52:00,
2013-10-06 13:12:00,51.0,38.0,29.76,WSW,252,2.0,7.0,60,0.00,,,0.00,,2013-10-06 18:12:00,
2013-10-06 13:22:00,51.0,38.0,29.76,NW,304,4.0,8.0,60,0.00,,,0.00,,2013-10-06 18:22:00,
2013-10-06 13:42:00,51.0,38.0,29.75,NW,306,3.0,5.0,61,0.00,,,0.00,,2013-10-06 18:42:00,
2013-10-06 13:52:00,51.0,37.0,29.75,NW,306,3.0,9.0,58,0.00,,,0.00,,2013-10-06 18:52:00,
2013-10-06 14:11:00,51.0,37.0,29.75,SSE,153,2.0,8.0,59,0.00,,,0.00,,2013-10-06 19:11:00,
2013-10-06 14:22:00,51.0,38.0,29.74,WNW,282,2.0,7.0,60,0.00,,,0.00,,2013-10-06 19:22:00,
2013-10-06 14:42:00,51.0,37.0,29.73,North,355,1.0,7.0,59,0.00,,,0.00,,2013-10-06 19:42:00,
2013-10-06 14:53:00,51.0,36.0,29.73,NW,309,2.0,8.0,57,0.00,,,0.00,,2013-10-06 19:53:00,
2013-10-06 15:11:00,51.0,38.0,29.73,NW,314,0.0,3.0,61,0.00,,,0.00,,2013-10-06 20:11:00,
2013-10-06 15:22:00,51.0,37.0,29.74,WNW,294,0.0,6.0,59,0.00,,,0.00,,2013-10-06 20:22:00,
2013-10-06 15:52:00,50.0,37.0,29.73,NW,323,2.0,8.0,61,0.00,,,0.00,,2013-10-06 20:52:00,
2013-10-06 16:11:00,50.0,38.0,29.74,WNW,283,3.0,8.0,63,0.00,,,0.00,,2013-10-06 21:11:00,
2013-10-06 16:22:00,50.0,38.0,29.75,NW,304,1.0,6.0,64,0.00,,,0.00,,2013-10-06 21:22:00,
2013-10-06 16:44:00,49.0,39.0,29.75,NW,312,4.0,6.0,69,0.00,,,0.00,,2013-10-06 21:44:00,
2013-10-06 16:54:00,48.0,40.0,29.76,West,271,0.0,4.0,74,0.00,,,0.00,,2013-10-06 21:54:00,
2013-10-06 17:13:00,48.0,41.0,29.76,NW,313,1.0,5.0,77,0.01,,,0.01,,2013-10-06 22:13:00,
2013-10-06 17:24:00,48.0,42.0,29.77,WNW,302,2.0,4.0,79,0.01,,,0.01,,2013-10-06 22:24:00,
2013-10-06 17:42:00,47.0,41.0,29.77,NW,316,1.0,4.0,79,0.01,,,0.01,,2013-10-06 22:42:00,
2013-10-06 17:53:00,47.0,41.0,29.77,NW,316,0.0,3.0,80,0.01,,,0.01,,2013-10-06 22:53:00,
2013-10-06 18:12:00,47.0,41.0,29.78,NW,306,0.0,5.0,80,0.00,,,0.01,,2013-10-06 23:12:00,
2013-10-06 18:22:00,47.0,41.0,29.78,WNW,296,1.0,5.0,79,0.00,,,0.01,,2013-10-06 23:22:00,
2013-10-06 18:42:00,47.0,41.0,29.78,NW,309,0.0,2.0,80,0.00,,,0.01,,2013-10-06 23:42:00,
2013-10-06 18:53:00,47.0,41.0,29.78,NW,309,0.0,2.0,80,0.00,,,0.01,,2013-10-06 23:53:00,
2013-10-06 19:12:00,47.0,41.0,29.78,WNW,294,0.0,3.0,81,0.00,,,0.01,,2013-10-07 00:12:00,
2013-10-06 19:22:00,47.0,42.0,29.78,WNW,294,0.0,1.0,82,0.00,,,0.01,,2013-10-07 00:22:00,
2013-10-06 19:42:00,46.0,41.0,29.78,WNW,294,0.0,4.0,82,0.00,,,0.01,,2013-10-07 00:42:00,
2013-10-06 19:52:00,46.0,41.0,29.78,WNW,294,0.0,2.0,83,0.00,,,0.01,,2013-10-07 00:52:00,
2013-10-06 20:11:00,46.0,41.0,29.79,WNW,294,0.0,3.0,83,0.00,,,0.01,,2013-10-07 01:11:00,
2013-10-06 20:22:00,46.0,41.0,29.79,WNW,292,2.0,5.0,82,0.00,,,0.01,,2013-10-07 01:22:00,
2013-10-06 20:42:00,46.0,41.0,29.79,WNW,292,0.0,2.0,82,0.00,,,0.01,,2013-10-07 01:42:00,
2013-10-06 20:53:00,46.0,41.0,29.79,WNW,292,0.0,2.0,82,0.00,,,0.01,,2013-10-07 01:53:00,
2013-10-06 21:12:00,46.0,41.0,29.79,WNW,292,0.0,2.0,83,0.00,,,0.01,,2013-10-07 02:12:00,
2013-10-06 21:22:00,46.0,41.0,29.80,WNW,292,1.0,3.0,83,0.00,,,0.01,,2013-10-07 02:22:00,
2013-10-06 21:42:00,46.0,41.0,29.80,WNW,292,0.0,4.0,84,0.00,,,0.01,,2013-10-07 02:42:00,
2013-10-06 21:53:00,46.0,41.0,29.81,WNW,292,0.0,2.0,84,0.00,,,0.01,,2013-10-07 02:53:00,
2013-10-06 22:12:00,46.0,42.0,29.81,WNW,293,0.0,3.0,85,0.00,,,0.01,,2013-10-07 03:12:00,
2013-10-06 22:22:00,47.0,42.0,29.81,WNW,293,0.0,3.0,84,0.00,,,0.01,,2013-10-07 03:22:00,
2013-10-06 22:54:00,47.0,43.0,29.82,NW,314,1.0,3.0,85,0.00,,,0.01,,2013-10-07 03:54:00,
2013-10-06 23:13:00,47.0,42.0,29.82,NNW,336,1.0,4.0,84,0.00,,,0.01,,2013-10-07 04:13:00,
2013-10-06 23:24:00,47.0,42.0,29.82,NW,319,4.0,7.0,83,0.00,,,0.01,,2013-10-07 04:24:00,
2013-10-06 23:44:00,47.0,42.0,29.82,NW,326,0.0,7.0,82,0.00,,,0.01,,2013-10-07 04:44:00,
2013-10-06 23:53:00,47.0,42.0,29.82,WNW,292,1.0,5.0,82,0.00,,,0.01,,2013-10-07 04:53:00,